Florencia — IBPD — position and weather

sailwx.info

Track history (hours):
 
Tides and Currents Weather Stations Pressure Air Temp Water Temp Dewpoint Dewpoint Depression Visibility Wind Speed Wind Dir Waves Ship Positions

Florencia

Last reported at 2014-Aug-01 22:27 UTC. Time now 2014-Aug-01 22:40 UTC.
Position N 40°55' E 012°16'.

Length 186 m; draft 6.1 m.

Type: Passenger vessel. MMSI: 247105900.

Date/timePositionNaut miles runAvg speedWind from/ knotsBaromVisibWave heightAir tempDewpointWater temp
2014-Aug-01 22:27N 40°55' E 012°16'131 6.4
2014-Aug-01 02:03N 38°55' E 013°24'1121.9
2014-Aug-01 01:33N 38°45' E 013°28'2221.9
2014-Aug-01 00:33N 38°25' E 013°39'2020.3
2014-Jul-31 23:33N 38°05' E 013°43'6 5.6
2014-Jul-31 22:33N 37°59' E 013°42'0 0.0
2014-Jul-31 21:33N 37°59' E 013°42'0 0.0
2014-Jul-31 20:33N 37°59' E 013°42'0 0.0
2014-Jul-31 19:33N 37°59' E 013°42'0 0.0
2014-Jul-31 18:33N 37°59' E 013°42'0 0.0
2014-Jul-31 17:33N 37°59' E 013°42'0 0.0
2014-Jul-31 16:33N 37°59' E 013°42'0 0.0
2014-Jul-31 15:33N 37°59' E 013°42'0 0.0
2014-Jul-31 14:33N 37°59' E 013°42'0 0.0
2014-Jul-31 13:33N 37°59' E 013°42'0 0.0
2014-Jul-31 12:33N 37°59' E 013°42'0 0.0
2014-Jul-31 11:33N 37°59' E 013°42'0 0.0
2014-Jul-31 10:33N 37°59' E 013°42'0 0.0
2014-Jul-31 09:34N 37°59' E 013°42'0 0.0
2014-Jul-31 08:33N 37°59' E 013°42'2 2.0
2014-Jul-31 07:33N 38°01' E 013°44'2120.9
2014-Jul-31 06:34N 38°22' E 013°41'2221.6
2014-Jul-31 05:34N 38°41' E 013°31'9 0.3
2014-Jul-30 02:34N 38°49' E 013°27'2020.4
2014-Jul-30 01:34N 38°30' E 013°37'2120.8
2014-Jul-30 00:34N 38°10' E 013°44'1111.2
2014-Jul-29 23:34N 37°59' E 013°42'0 0.0
2014-Jul-29 22:33N 37°59' E 013°42'0 0.0
2014-Jul-29 21:34N 37°59' E 013°42'0 0.0
2014-Jul-29 20:34N 37°59' E 013°42'0 0.0
2014-Jul-29 19:34N 37°59' E 013°42'0 0.0
2014-Jul-29 18:34N 37°59' E 013°42'0 0.0
2014-Jul-29 17:34N 37°59' E 013°42'0 0.0
2014-Jul-29 16:34N 37°59' E 013°42'0 0.0
2014-Jul-29 15:34N 37°59' E 013°42'0 0.0
2014-Jul-29 14:33N 37°59' E 013°42'0 0.0
2014-Jul-29 13:33N 37°59' E 013°42'0 0.0
2014-Jul-29 12:34N 37°59' E 013°42'0 0.0
2014-Jul-29 11:33N 37°59' E 013°42'0 0.0
2014-Jul-29 10:33N 37°59' E 013°42'0 0.0
2014-Jul-29 09:33N 37°59' E 013°42'0 0.0
2014-Jul-29 08:33N 37°59' E 013°42'0 0.0
2014-Jul-29 07:33N 37°59' E 013°42'1414.3
2014-Jul-29 06:33N 38°13' E 013°43'2221.9
2014-Jul-29 05:33N 38°35' E 013°36'2221.9
2014-Jul-29 04:33N 38°54' E 013°24'7 0.2
2014-Jul-27 20:21N 38°54' E 013°14'1721.2
2014-Jul-27 19:33N 38°38' E 013°21'2221.8
2014-Jul-27 18:33N 38°16' E 013°25'9 8.8
2014-Jul-27 17:33N 38°08' E 013°22'0 0.0
2014-Jul-27 16:33N 38°08' E 013°22'0 0.0
2014-Jul-27 15:33N 38°08' E 013°22'0 0.0
2014-Jul-27 14:33N 38°08' E 013°22'0 0.0
2014-Jul-27 13:33N 38°08' E 013°22'0 0.0
2014-Jul-27 12:33N 38°08' E 013°22'0 0.0
2014-Jul-27 11:33N 38°08' E 013°22'0 0.0
2014-Jul-27 10:33N 38°08' E 013°22'2 2.4
2014-Jul-27 09:33N 38°09' E 013°24'1717.4
2014-Jul-27 08:33N 38°18' E 013°05'11120.7
2014-Jul-27 03:10N 37°22' E 011°02'1321.4
2014-Jul-27 02:33N 37°14' E 010°49'2120.9
2014-Jul-27 01:33N 36°58' E 010°33'1515.0
2014-Jul-27 00:33N 36°49' E 010°18'0 0.0
2014-Jul-26 23:33N 36°49' E 010°18'0 0.0
2014-Jul-26 22:33N 36°49' E 010°18'0 0.0
2014-Jul-26 21:33N 36°49' E 010°18'17016.6
2014-Jul-26 11:19N 38°10' E 013°26'34 5.9
2014-Jul-26 05:34N 38°44' E 013°20'2221.6
2014-Jul-26 04:33N 39°04' E 013°09'2221.7
2014-Jul-26 03:33N 39°24' E 012°59'23 0.9
2014-Jul-25 03:09N 39°06' E 013°17'1821.1
2014-Jul-25 02:17N 38°49' E 013°27'1115.0
2014-Jul-25 01:33N 38°40' E 013°33'1715.9
2014-Jul-25 00:30N 38°24' E 013°40'2121.5
2014-Jul-24 23:32N 38°03' E 013°42'4 3.3
2014-Jul-24 22:23N 37°59' E 013°42'0 0.0
2014-Jul-24 21:32N 37°59' E 013°42'0 0.0
2014-Jul-24 20:32N 37°59' E 013°42'0 0.0
2014-Jul-24 19:32N 37°59' E 013°42'0 0.0
2014-Jul-24 18:32N 37°59' E 013°42'0 0.0
2014-Jul-24 17:32N 37°59' E 013°42'0 0.0
2014-Jul-24 16:29N 37°59' E 013°42'0 0.0
2014-Jul-24 15:32N 37°59' E 013°42'0 0.0
2014-Jul-24 14:32N 37°59' E 013°42'0 0.0
2014-Jul-24 13:32N 37°59' E 013°42'0 0.0
2014-Jul-24 12:32N 37°59' E 013°42'0 0.0
2014-Jul-24 11:32N 37°59' E 013°42'0 0.0
2014-Jul-24 10:32N 37°59' E 013°42'0 0.0
2014-Jul-24 09:32N 37°59' E 013°42'0 0.0
2014-Jul-24 08:32N 37°59' E 013°42'1 0.5
2014-Jul-24 07:33N 37°59' E 013°43'1818.3
2014-Jul-24 06:33N 38°17' E 013°43'2222.1
2014-Jul-24 05:33N 38°38' E 013°34'17 0.6
2014-Jul-23 02:28N 38°55' E 013°36'1921.2
2014-Jul-23 01:33N 38°36' E 013°40'2121.3
2014-Jul-23 00:33N 38°15' E 013°43'1614.5
2014-Jul-22 23:28N 37°59' E 013°42'0 0.0
2014-Jul-22 22:31N 37°59' E 013°42'  
Track history (hours):
 
Tides and Currents Weather Stations Pressure Air Temp Water Temp Dewpoint Dewpoint Depression Visibility Wind Speed Wind Dir Waves Ship Positions

Florencia

Last reported at 2014-Aug-01 22:27 UTC. Time now 2014-Aug-01 22:40 UTC.
Position N 40°55' E 012°16'.

Length 186 m; draft 6.1 m.

Type: Passenger vessel. MMSI: 247105900.

Date/timePositionNaut miles runAvg speedWind from/ knotsBaromVisibWave heightAir tempDewpointWater temp
2014-Aug-01 22:27N 40°55' E 012°16'131 6.4
2014-Aug-01 02:03N 38°55' E 013°24'1121.9
2014-Aug-01 01:33N 38°45' E 013°28'2221.9
2014-Aug-01 00:33N 38°25' E 013°39'2020.3
2014-Jul-31 23:33N 38°05' E 013°43'6 5.6
2014-Jul-31 22:33N 37°59' E 013°42'0 0.0
2014-Jul-31 21:33N 37°59' E 013°42'0 0.0
2014-Jul-31 20:33N 37°59' E 013°42'0 0.0
2014-Jul-31 19:33N 37°59' E 013°42'0 0.0
2014-Jul-31 18:33N 37°59' E 013°42'0 0.0
2014-Jul-31 17:33N 37°59' E 013°42'0 0.0
2014-Jul-31 16:33N 37°59' E 013°42'0 0.0
2014-Jul-31 15:33N 37°59' E 013°42'0 0.0
2014-Jul-31 14:33N 37°59' E 013°42'0 0.0
2014-Jul-31 13:33N 37°59' E 013°42'0 0.0
2014-Jul-31 12:33N 37°59' E 013°42'0 0.0
2014-Jul-31 11:33N 37°59' E 013°42'0 0.0
2014-Jul-31 10:33N 37°59' E 013°42'0 0.0
2014-Jul-31 09:34N 37°59' E 013°42'0 0.0
2014-Jul-31 08:33N 37°59' E 013°42'2 2.0
2014-Jul-31 07:33N 38°01' E 013°44'2120.9
2014-Jul-31 06:34N 38°22' E 013°41'2221.6
2014-Jul-31 05:34N 38°41' E 013°31'9 0.3
2014-Jul-30 02:34N 38°49' E 013°27'2020.4
2014-Jul-30 01:34N 38°30' E 013°37'2120.8
2014-Jul-30 00:34N 38°10' E 013°44'1111.2
2014-Jul-29 23:34N 37°59' E 013°42'0 0.0
2014-Jul-29 22:33N 37°59' E 013°42'0 0.0
2014-Jul-29 21:34N 37°59' E 013°42'0 0.0
2014-Jul-29 20:34N 37°59' E 013°42'0 0.0
2014-Jul-29 19:34N 37°59' E 013°42'0 0.0
2014-Jul-29 18:34N 37°59' E 013°42'0 0.0
2014-Jul-29 17:34N 37°59' E 013°42'0 0.0
2014-Jul-29 16:34N 37°59' E 013°42'0 0.0
2014-Jul-29 15:34N 37°59' E 013°42'0 0.0
2014-Jul-29 14:33N 37°59' E 013°42'0 0.0
2014-Jul-29 13:33N 37°59' E 013°42'0 0.0
2014-Jul-29 12:34N 37°59' E 013°42'0 0.0
2014-Jul-29 11:33N 37°59' E 013°42'0 0.0
2014-Jul-29 10:33N 37°59' E 013°42'0 0.0
2014-Jul-29 09:33N 37°59' E 013°42'0 0.0
2014-Jul-29 08:33N 37°59' E 013°42'0 0.0
2014-Jul-29 07:33N 37°59' E 013°42'1414.3
2014-Jul-29 06:33N 38°13' E 013°43'2221.9
2014-Jul-29 05:33N 38°35' E 013°36'2221.9
2014-Jul-29 04:33N 38°54' E 013°24'7 0.2
2014-Jul-27 20:21N 38°54' E 013°14'1721.2
2014-Jul-27 19:33N 38°38' E 013°21'2221.8
2014-Jul-27 18:33N 38°16' E 013°25'9 8.8
2014-Jul-27 17:33N 38°08' E 013°22'0 0.0
2014-Jul-27 16:33N 38°08' E 013°22'0 0.0
2014-Jul-27 15:33N 38°08' E 013°22'0 0.0
2014-Jul-27 14:33N 38°08' E 013°22'0 0.0
2014-Jul-27 13:33N 38°08' E 013°22'0 0.0
2014-Jul-27 12:33N 38°08' E 013°22'0 0.0
2014-Jul-27 11:33N 38°08' E 013°22'0 0.0
2014-Jul-27 10:33N 38°08' E 013°22'2 2.4
2014-Jul-27 09:33N 38°09' E 013°24'1717.4
2014-Jul-27 08:33N 38°18' E 013°05'11120.7
2014-Jul-27 03:10N 37°22' E 011°02'1321.4
2014-Jul-27 02:33N 37°14' E 010°49'2120.9
2014-Jul-27 01:33N 36°58' E 010°33'1515.0
2014-Jul-27 00:33N 36°49' E 010°18'0 0.0
2014-Jul-26 23:33N 36°49' E 010°18'0 0.0
2014-Jul-26 22:33N 36°49' E 010°18'0 0.0
2014-Jul-26 21:33N 36°49' E 010°18'17016.6
2014-Jul-26 11:19N 38°10' E 013°26'34 5.9
2014-Jul-26 05:34N 38°44' E 013°20'2221.6
2014-Jul-26 04:33N 39°04' E 013°09'2221.7
2014-Jul-26 03:33N 39°24' E 012°59'23 0.9
2014-Jul-25 03:09N 39°06' E 013°17'1821.1
2014-Jul-25 02:17N 38°49' E 013°27'1115.0
2014-Jul-25 01:33N 38°40' E 013°33'1715.9
2014-Jul-25 00:30N 38°24' E 013°40'2121.5
2014-Jul-24 23:32N 38°03' E 013°42'4 3.3
2014-Jul-24 22:23N 37°59' E 013°42'0 0.0
2014-Jul-24 21:32N 37°59' E 013°42'0 0.0
2014-Jul-24 20:32N 37°59' E 013°42'0 0.0
2014-Jul-24 19:32N 37°59' E 013°42'0 0.0
2014-Jul-24 18:32N 37°59' E 013°42'0 0.0
2014-Jul-24 17:32N 37°59' E 013°42'0 0.0
2014-Jul-24 16:29N 37°59' E 013°42'0 0.0
2014-Jul-24 15:32N 37°59' E 013°42'0 0.0
2014-Jul-24 14:32N 37°59' E 013°42'0 0.0
2014-Jul-24 13:32N 37°59' E 013°42'0 0.0
2014-Jul-24 12:32N 37°59' E 013°42'0 0.0
2014-Jul-24 11:32N 37°59' E 013°42'0 0.0
2014-Jul-24 10:32N 37°59' E 013°42'0 0.0
2014-Jul-24 09:32N 37°59' E 013°42'0 0.0
2014-Jul-24 08:32N 37°59' E 013°42'1 0.5
2014-Jul-24 07:33N 37°59' E 013°43'1818.3
2014-Jul-24 06:33N 38°17' E 013°43'2222.1
2014-Jul-24 05:33N 38°38' E 013°34'17 0.6
2014-Jul-23 02:28N 38°55' E 013°36'1921.2
2014-Jul-23 01:33N 38°36' E 013°40'2121.3
2014-Jul-23 00:33N 38°15' E 013°43'1614.5
2014-Jul-22 23:28N 37°59' E 013°42'0 0.0
2014-Jul-22 22:31N 37°59' E 013°42'  

Dump ship's entire track history